sensor_id;sensor_type;location;lat;lon;timestamp;pressure;altitude;pressure_sealevel;temperature;humidity
56719;BME280;42597;40.636;0.278;2023-04-19T00:00:18;97207.50;;;13.95;71.86
56719;BME280;42597;40.636;0.278;2023-04-19T00:02:45;97200.78;;;13.62;72.67
56719;BME280;42597;40.636;0.278;2023-04-19T00:05:13;97202.72;;;13.85;71.93
56719;BME280;42597;40.636;0.278;2023-04-19T00:07:39;97205.75;;;13.79;72.41
56719;BME280;42597;40.636;0.278;2023-04-19T00:10:06;97197.00;;;14.20;70.36
56719;BME280;42597;40.636;0.278;2023-04-19T00:12:31;97195.41;;;14.19;70.88
56719;BME280;42597;40.636;0.278;2023-04-19T00:14:57;97202.28;;;14.09;70.41
56719;BME280;42597;40.636;0.278;2023-04-19T00:17:23;97191.66;;;13.74;71.09
56719;BME280;42597;40.636;0.278;2023-04-19T00:19:48;97188.63;;;13.75;71.19
56719;BME280;42597;40.636;0.278;2023-04-19T00:22:15;97197.31;;;13.62;71.44
56719;BME280;42597;40.636;0.278;2023-04-19T00:24:41;97202.22;;;14.62;70.55
56719;BME280;42597;40.636;0.278;2023-04-19T00:27:07;97194.03;;;14.92;68.12
56719;BME280;42597;40.636;0.278;2023-04-19T00:29:32;97193.56;;;15.27;67.34
56719;BME280;42597;40.636;0.278;2023-04-19T00:31:58;97188.22;;;14.60;66.38
56719;BME280;42597;40.636;0.278;2023-04-19T00:34:23;97193.22;;;14.58;67.17
56719;BME280;42597;40.636;0.278;2023-04-19T00:36:49;97190.47;;;13.98;68.05
56719;BME280;42597;40.636;0.278;2023-04-19T00:39:14;97183.19;;;13.75;69.32
56719;BME280;42597;40.636;0.278;2023-04-19T00:41:40;97186.34;;;14.38;70.04
56719;BME280;42597;40.636;0.278;2023-04-19T00:44:06;97183.03;;;15.22;67.43
56719;BME280;42597;40.636;0.278;2023-04-19T00:46:31;97185.81;;;15.29;64.68
56719;BME280;42597;40.636;0.278;2023-04-19T00:48:57;97184.91;;;14.77;65.37
56719;BME280;42597;40.636;0.278;2023-04-19T00:51:22;97188.19;;;14.00;68.06
56719;BME280;42597;40.636;0.278;2023-04-19T00:53:48;97180.97;;;13.85;69.15
56719;BME280;42597;40.636;0.278;2023-04-19T00:56:14;97176.50;;;13.96;69.26
56719;BME280;42597;40.636;0.278;2023-04-19T00:58:40;97178.56;;;14.66;65.42
56719;BME280;42597;40.636;0.278;2023-04-19T01:01:06;97187.47;;;14.63;66.93
56719;BME280;42597;40.636;0.278;2023-04-19T01:03:32;97180.41;;;14.59;66.49
56719;BME280;42597;40.636;0.278;2023-04-19T01:05:59;97184.94;;;13.91;67.59
56719;BME280;42597;40.636;0.278;2023-04-19T01:08:25;97180.22;;;13.61;68.52
56719;BME280;42597;40.636;0.278;2023-04-19T01:10:50;97179.25;;;13.73;68.39
56719;BME280;42597;40.636;0.278;2023-04-19T01:13:16;97177.13;;;13.36;69.25
56719;BME280;42597;40.636;0.278;2023-04-19T01:15:42;97166.75;;;13.42;69.97
56719;BME280;42597;40.636;0.278;2023-04-19T01:18:08;97173.97;;;13.34;69.97
56719;BME280;42597;40.636;0.278;2023-04-19T01:20:34;97176.22;;;13.28;69.88
56719;BME280;42597;40.636;0.278;2023-04-19T01:23:00;97163.53;;;13.59;69.26
56719;BME280;42597;40.636;0.278;2023-04-19T01:25:26;97169.81;;;13.63;68.80
56719;BME280;42597;40.636;0.278;2023-04-19T01:27:51;97160.19;;;13.96;68.95
56719;BME280;42597;40.636;0.278;2023-04-19T01:30:17;97161.72;;;14.53;68.02
56719;BME280;42597;40.636;0.278;2023-04-19T01:32:43;97161.97;;;14.11;66.59
56719;BME280;42597;40.636;0.278;2023-04-19T01:35:09;97157.53;;;13.73;67.12
56719;BME280;42597;40.636;0.278;2023-04-19T01:37:36;97156.75;;;14.63;68.20
56719;BME280;42597;40.636;0.278;2023-04-19T01:40:03;97146.66;;;14.97;66.37
56719;BME280;42597;40.636;0.278;2023-04-19T01:42:30;97142.22;;;14.48;65.82
56719;BME280;42597;40.636;0.278;2023-04-19T01:44:55;97145.72;;;14.82;65.67
56719;BME280;42597;40.636;0.278;2023-04-19T01:47:22;97142.13;;;15.15;62.51
56719;BME280;42597;40.636;0.278;2023-04-19T01:49:49;97141.47;;;15.25;65.16
56719;BME280;42597;40.636;0.278;2023-04-19T01:52:15;97141.69;;;14.69;65.54
56719;BME280;42597;40.636;0.278;2023-04-19T01:54:40;97140.09;;;15.49;65.34
56719;BME280;42597;40.636;0.278;2023-04-19T01:57:06;97133.06;;;15.45;64.59
56719;BME280;42597;40.636;0.278;2023-04-19T01:59:32;97137.56;;;15.26;63.32
56719;BME280;42597;40.636;0.278;2023-04-19T02:01:57;97135.94;;;15.18;65.09
56719;BME280;42597;40.636;0.278;2023-04-19T02:04:23;97126.81;;;14.96;64.48
56719;BME280;42597;40.636;0.278;2023-04-19T02:06:48;97126.69;;;15.26;63.79
56719;BME280;42597;40.636;0.278;2023-04-19T02:09:14;97130.44;;;15.11;64.63
56719;BME280;42597;40.636;0.278;2023-04-19T02:11:40;97128.06;;;15.06;62.96
56719;BME280;42597;40.636;0.278;2023-04-19T02:14:05;97132.72;;;15.05;65.74
56719;BME280;42597;40.636;0.278;2023-04-19T02:16:31;97128.88;;;16.27;61.60
56719;BME280;42597;40.636;0.278;2023-04-19T02:18:57;97126.41;;;15.94;60.98
56719;BME280;42597;40.636;0.278;2023-04-19T02:21:23;97124.47;;;15.43;61.16
56719;BME280;42597;40.636;0.278;2023-04-19T02:23:48;97127.16;;;15.91;62.20
56719;BME280;42597;40.636;0.278;2023-04-19T02:26:14;97122.91;;;14.94;63.51
56719;BME280;42597;40.636;0.278;2023-04-19T02:28:39;97124.13;;;14.63;61.56
56719;BME280;42597;40.636;0.278;2023-04-19T02:31:05;97129.59;;;14.32;62.99
56719;BME280;42597;40.636;0.278;2023-04-19T02:33:31;97129.13;;;14.57;64.00
56719;BME280;42597;40.636;0.278;2023-04-19T02:35:56;97130.09;;;14.72;63.50
56719;BME280;42597;40.636;0.278;2023-04-19T02:38:22;97134.03;;;13.84;62.27
56719;BME280;42597;40.636;0.278;2023-04-19T02:40:48;97132.28;;;13.99;66.85
56719;BME280;42597;40.636;0.278;2023-04-19T02:43:13;97134.59;;;13.97;63.04
56719;BME280;42597;40.636;0.278;2023-04-19T02:45:39;97133.41;;;14.24;61.74
56719;BME280;42597;40.636;0.278;2023-04-19T02:48:05;97132.72;;;13.74;62.89
56719;BME280;42597;40.636;0.278;2023-04-19T02:50:31;97134.19;;;13.68;64.89
56719;BME280;42597;40.636;0.278;2023-04-19T02:52:57;97127.13;;;14.50;66.74
56719;BME280;42597;40.636;0.278;2023-04-19T02:55:23;97123.06;;;14.71;64.49
56719;BME280;42597;40.636;0.278;2023-04-19T02:57:48;97129.13;;;14.23;63.38
56719;BME280;42597;40.636;0.278;2023-04-19T03:00:14;97129.38;;;13.58;63.51
56719;BME280;42597;40.636;0.278;2023-04-19T03:02:42;97135.69;;;13.16;65.08
56719;BME280;42597;40.636;0.278;2023-04-19T03:05:09;97125.00;;;13.76;64.77
56719;BME280;42597;40.636;0.278;2023-04-19T03:07:35;97127.28;;;13.74;64.99
56719;BME280;42597;40.636;0.278;2023-04-19T03:10:01;97123.44;;;14.36;65.99
56719;BME280;42597;40.636;0.278;2023-04-19T03:12:26;97121.50;;;14.70;64.82
56719;BME280;42597;40.636;0.278;2023-04-19T03:14:52;97121.66;;;15.84;63.37
56719;BME280;42597;40.636;0.278;2023-04-19T03:17:19;97128.09;;;16.16;61.47
56719;BME280;42597;40.636;0.278;2023-04-19T03:19:44;97129.28;;;15.60;62.17
56719;BME280;42597;40.636;0.278;2023-04-19T03:22:10;97129.59;;;16.10;61.93
56719;BME280;42597;40.636;0.278;2023-04-19T03:24:36;97119.28;;;14.82;59.76
56719;BME280;42597;40.636;0.278;2023-04-19T03:27:02;97127.38;;;13.81;62.06
56719;BME280;42597;40.636;0.278;2023-04-19T03:29:28;97123.03;;;14.03;65.31
56719;BME280;42597;40.636;0.278;2023-04-19T03:31:53;97131.63;;;14.09;65.42
56719;BME280;42597;40.636;0.278;2023-04-19T03:34:19;97125.00;;;13.50;61.87
56719;BME280;42597;40.636;0.278;2023-04-19T03:36:45;97124.28;;;13.79;68.12
56719;BME280;42597;40.636;0.278;2023-04-19T03:39:11;97119.38;;;14.22;63.48
56719;BME280;42597;40.636;0.278;2023-04-19T03:41:36;97120.97;;;13.67;62.63
56719;BME280;42597;40.636;0.278;2023-04-19T03:44:04;97121.28;;;13.88;65.30
56719;BME280;42597;40.636;0.278;2023-04-19T03:46:30;97124.91;;;13.20;63.68
56719;BME280;42597;40.636;0.278;2023-04-19T03:48:58;97121.03;;;13.44;65.91
56719;BME280;42597;40.636;0.278;2023-04-19T03:51:24;97115.66;;;14.04;64.40
56719;BME280;42597;40.636;0.278;2023-04-19T03:53:49;97117.22;;;13.75;65.47
56719;BME280;42597;40.636;0.278;2023-04-19T03:56:15;97120.06;;;13.86;63.09
56719;BME280;42597;40.636;0.278;2023-04-19T03:58:41;97123.06;;;13.50;64.95
56719;BME280;42597;40.636;0.278;2023-04-19T04:01:06;97118.25;;;13.40;64.48
56719;BME280;42597;40.636;0.278;2023-04-19T04:03:33;97113.66;;;13.71;65.72
56719;BME280;42597;40.636;0.278;2023-04-19T04:05:59;97118.28;;;13.97;64.91
56719;BME280;42597;40.636;0.278;2023-04-19T04:08:25;97126.66;;;13.31;64.75
56719;BME280;42597;40.636;0.278;2023-04-19T04:10:52;97120.00;;;13.52;64.38
56719;BME280;42597;40.636;0.278;2023-04-19T04:13:18;97124.28;;;13.53;65.09
56719;BME280;42597;40.636;0.278;2023-04-19T04:15:44;97132.84;;;13.09;64.02
56719;BME280;42597;40.636;0.278;2023-04-19T04:18:10;97126.94;;;12.80;64.74
56719;BME280;42597;40.636;0.278;2023-04-19T04:20:35;97131.81;;;12.71;64.58
56719;BME280;42597;40.636;0.278;2023-04-19T04:23:01;97131.59;;;13.26;67.16
56719;BME280;42597;40.636;0.278;2023-04-19T04:25:27;97135.50;;;13.05;64.20
56719;BME280;42597;40.636;0.278;2023-04-19T04:27:53;97134.31;;;13.03;65.13
56719;BME280;42597;40.636;0.278;2023-04-19T04:30:19;97129.19;;;13.44;68.93
56719;BME280;42597;40.636;0.278;2023-04-19T04:32:44;97129.31;;;13.54;62.00
56719;BME280;42597;40.636;0.278;2023-04-19T04:35:11;97131.06;;;13.40;64.86
56719;BME280;42597;40.636;0.278;2023-04-19T04:37:37;97136.97;;;12.99;65.15
56719;BME280;42597;40.636;0.278;2023-04-19T04:40:05;97134.72;;;13.05;66.36
56719;BME280;42597;40.636;0.278;2023-04-19T04:42:31;97124.28;;;13.30;63.21
56719;BME280;42597;40.636;0.278;2023-04-19T04:44:57;97131.28;;;13.08;64.41
56719;BME280;42597;40.636;0.278;2023-04-19T04:47:34;97134.78;;;12.66;64.22
56719;BME280;42597;40.636;0.278;2023-04-19T04:50:00;97130.44;;;12.39;65.65
56719;BME280;42597;40.636;0.278;2023-04-19T04:52:27;97129.91;;;13.41;67.68
56719;BME280;42597;40.636;0.278;2023-04-19T04:54:53;97133.16;;;13.04;62.26
56719;BME280;42597;40.636;0.278;2023-04-19T04:57:18;97132.25;;;12.54;64.65
56719;BME280;42597;40.636;0.278;2023-04-19T04:59:44;97135.78;;;12.35;64.65
56719;BME280;42597;40.636;0.278;2023-04-19T05:02:14;97129.97;;;12.56;64.84
56719;BME280;42597;40.636;0.278;2023-04-19T05:04:40;97134.31;;;13.03;66.36
56719;BME280;42597;40.636;0.278;2023-04-19T05:07:05;97134.22;;;12.76;62.24
56719;BME280;42597;40.636;0.278;2023-04-19T05:09:31;97138.25;;;12.63;63.85
56719;BME280;42597;40.636;0.278;2023-04-19T05:11:57;97134.47;;;13.90;62.97
56719;BME280;42597;40.636;0.278;2023-04-19T05:14:23;97137.13;;;13.56;65.12
56719;BME280;42597;40.636;0.278;2023-04-19T05:16:48;97135.69;;;14.90;66.68
56719;BME280;42597;40.636;0.278;2023-04-19T05:19:14;97130.44;;;14.06;63.74
56719;BME280;42597;40.636;0.278;2023-04-19T05:21:40;97147.63;;;13.12;60.16
56719;BME280;42597;40.636;0.278;2023-04-19T05:24:06;97145.00;;;13.65;65.31
56719;BME280;42597;40.636;0.278;2023-04-19T05:26:34;97157.56;;;13.04;64.80
56719;BME280;42597;40.636;0.278;2023-04-19T05:29:00;97147.78;;;13.22;63.91
56719;BME280;42597;40.636;0.278;2023-04-19T05:31:25;97147.19;;;13.09;66.56
56719;BME280;42597;40.636;0.278;2023-04-19T05:33:51;97155.63;;;12.62;64.16
56719;BME280;42597;40.636;0.278;2023-04-19T05:36:17;97162.34;;;12.68;64.37
56719;BME280;42597;40.636;0.278;2023-04-19T05:38:43;97161.25;;;12.73;64.27
56719;BME280;42597;40.636;0.278;2023-04-19T05:41:09;97168.28;;;12.35;62.30
56719;BME280;42597;40.636;0.278;2023-04-19T05:43:36;97163.97;;;13.15;66.12
56719;BME280;42597;40.636;0.278;2023-04-19T05:46:01;97151.38;;;13.76;64.86
56719;BME280;42597;40.636;0.278;2023-04-19T05:48:27;97162.56;;;12.59;62.71
56719;BME280;42597;40.636;0.278;2023-04-19T05:50:53;97158.59;;;14.51;66.14
56719;BME280;42597;40.636;0.278;2023-04-19T05:53:21;97162.59;;;14.01;63.61
56719;BME280;42597;40.636;0.278;2023-04-19T05:55:47;97158.03;;;14.08;62.16
56719;BME280;42597;40.636;0.278;2023-04-19T05:58:15;97171.34;;;14.17;66.50
56719;BME280;42597;40.636;0.278;2023-04-19T06:00:41;97172.94;;;13.19;62.67
56719;BME280;42597;40.636;0.278;2023-04-19T06:03:07;97179.09;;;13.89;64.57
56719;BME280;42597;40.636;0.278;2023-04-19T06:05:33;97178.81;;;12.79;62.21
56719;BME280;42597;40.636;0.278;2023-04-19T06:07:58;97174.56;;;13.01;63.75
56719;BME280;42597;40.636;0.278;2023-04-19T06:10:24;97173.78;;;13.96;61.77
56719;BME280;42597;40.636;0.278;2023-04-19T06:12:50;97174.72;;;13.80;62.16
56719;BME280;42597;40.636;0.278;2023-04-19T06:15:16;97175.56;;;14.45;64.23
56719;BME280;42597;40.636;0.278;2023-04-19T06:17:41;97173.44;;;14.31;60.58
56719;BME280;42597;40.636;0.278;2023-04-19T06:20:07;97180.50;;;14.05;62.51
56719;BME280;42597;40.636;0.278;2023-04-19T06:22:34;97173.66;;;14.15;62.95
56719;BME280;42597;40.636;0.278;2023-04-19T06:25:06;97170.94;;;15.16;63.38
56719;BME280;42597;40.636;0.278;2023-04-19T06:27:32;97177.25;;;14.53;60.44
56719;BME280;42597;40.636;0.278;2023-04-19T06:29:57;97176.50;;;14.26;61.22
56719;BME280;42597;40.636;0.278;2023-04-19T06:32:25;97191.09;;;13.61;62.56
56719;BME280;42597;40.636;0.278;2023-04-19T06:34:51;97182.72;;;14.26;62.75
56719;BME280;42597;40.636;0.278;2023-04-19T06:37:17;97177.50;;;14.74;61.59
56719;BME280;42597;40.636;0.278;2023-04-19T06:39:43;97180.06;;;14.97;61.37
56719;BME280;42597;40.636;0.278;2023-04-19T06:42:08;97187.78;;;14.58;60.74
56719;BME280;42597;40.636;0.278;2023-04-19T06:44:34;97186.72;;;14.66;61.76
56719;BME280;42597;40.636;0.278;2023-04-19T06:47:00;97184.34;;;14.61;60.53
56719;BME280;42597;40.636;0.278;2023-04-19T06:49:26;97187.94;;;15.50;60.30
56719;BME280;42597;40.636;0.278;2023-04-19T06:51:52;97181.75;;;14.42;56.72
56719;BME280;42597;40.636;0.278;2023-04-19T06:54:17;97186.59;;;14.25;56.50
56719;BME280;42597;40.636;0.278;2023-04-19T06:56:45;97192.25;;;14.13;58.07
56719;BME280;42597;40.636;0.278;2023-04-19T06:59:12;97190.88;;;14.26;58.58
56719;BME280;42597;40.636;0.278;2023-04-19T07:01:38;97187.00;;;14.91;61.23
56719;BME280;42597;40.636;0.278;2023-04-19T07:04:06;97190.56;;;14.62;58.12
56719;BME280;42597;40.636;0.278;2023-04-19T07:06:33;97185.72;;;14.81;57.94
56719;BME280;42597;40.636;0.278;2023-04-19T07:08:59;97186.50;;;14.48;59.09
56719;BME280;42597;40.636;0.278;2023-04-19T07:11:25;97194.22;;;15.14;55.97
56719;BME280;42597;40.636;0.278;2023-04-19T07:13:51;97190.31;;;14.44;55.15
56719;BME280;42597;40.636;0.278;2023-04-19T07:16:17;97198.72;;;14.31;57.86
56719;BME280;42597;40.636;0.278;2023-04-19T07:18:42;97193.19;;;14.24;57.36
56719;BME280;42597;40.636;0.278;2023-04-19T07:21:09;97189.13;;;14.41;57.07
56719;BME280;42597;40.636;0.278;2023-04-19T07:23:35;97184.84;;;14.40;57.92
56719;BME280;42597;40.636;0.278;2023-04-19T07:26:01;97194.88;;;14.36;59.10
56719;BME280;42597;40.636;0.278;2023-04-19T07:28:30;97194.22;;;14.46;59.60
56719;BME280;42597;40.636;0.278;2023-04-19T07:30:56;97193.22;;;14.58;61.34
56719;BME280;42597;40.636;0.278;2023-04-19T07:33:22;97196.41;;;14.64;64.85
56719;BME280;42597;40.636;0.278;2023-04-19T07:35:52;97197.06;;;14.87;68.11
56719;BME280;42597;40.636;0.278;2023-04-19T07:38:18;97195.13;;;14.88;68.87
56719;BME280;42597;40.636;0.278;2023-04-19T07:40:44;97195.28;;;15.02;68.05
56719;BME280;42597;40.636;0.278;2023-04-19T07:43:10;97190.88;;;14.90;68.68
56719;BME280;42597;40.636;0.278;2023-04-19T07:45:36;97190.47;;;14.88;67.33
56719;BME280;42597;40.636;0.278;2023-04-19T07:48:02;97194.88;;;15.00;66.85
56719;BME280;42597;40.636;0.278;2023-04-19T07:50:28;97193.44;;;15.13;66.11
56719;BME280;42597;40.636;0.278;2023-04-19T07:52:53;97194.25;;;15.17;64.96
56719;BME280;42597;40.636;0.278;2023-04-19T07:55:19;97191.63;;;15.24;68.64
56719;BME280;42597;40.636;0.278;2023-04-19T07:57:45;97201.47;;;15.40;71.64
56719;BME280;42597;40.636;0.278;2023-04-19T08:00:17;97198.91;;;15.58;71.17
56719;BME280;42597;40.636;0.278;2023-04-19T08:02:43;97192.31;;;15.62;70.95
56719;BME280;42597;40.636;0.278;2023-04-19T08:05:10;97195.38;;;15.53;70.78
56719;BME280;42597;40.636;0.278;2023-04-19T08:07:37;97202.00;;;15.60;69.46
56719;BME280;42597;40.636;0.278;2023-04-19T08:10:04;97199.53;;;15.85;69.21
56719;BME280;42597;40.636;0.278;2023-04-19T08:12:30;97196.34;;;15.79;70.07
56719;BME280;42597;40.636;0.278;2023-04-19T08:14:56;97198.75;;;15.88;68.98
56719;BME280;42597;40.636;0.278;2023-04-19T08:17:22;97198.94;;;16.16;67.66
56719;BME280;42597;40.636;0.278;2023-04-19T08:19:49;97205.19;;;16.17;67.12
56719;BME280;42597;40.636;0.278;2023-04-19T08:22:16;97200.50;;;16.17;65.19
56719;BME280;42597;40.636;0.278;2023-04-19T08:24:43;97196.34;;;16.38;63.41
56719;BME280;42597;40.636;0.278;2023-04-19T08:27:09;97201.84;;;16.52;62.07
56719;BME280;42597;40.636;0.278;2023-04-19T08:29:35;97198.06;;;16.74;60.57
56719;BME280;42597;40.636;0.278;2023-04-19T08:32:04;97195.25;;;16.53;61.67
56719;BME280;42597;40.636;0.278;2023-04-19T08:34:30;97193.25;;;16.46;63.82
56719;BME280;42597;40.636;0.278;2023-04-19T08:36:56;97197.59;;;16.62;61.40
56719;BME280;42597;40.636;0.278;2023-04-19T08:39:22;97193.75;;;16.70;63.56
56719;BME280;42597;40.636;0.278;2023-04-19T08:41:48;97199.19;;;16.70;63.57
56719;BME280;42597;40.636;0.278;2023-04-19T08:44:15;97201.69;;;17.11;59.61
56719;BME280;42597;40.636;0.278;2023-04-19T08:46:43;97194.59;;;16.92;59.20
56719;BME280;42597;40.636;0.278;2023-04-19T08:49:09;97202.44;;;17.04;58.42
56719;BME280;42597;40.636;0.278;2023-04-19T08:51:37;97193.88;;;17.06;56.69
56719;BME280;42597;40.636;0.278;2023-04-19T08:54:03;97194.69;;;17.27;57.48
56719;BME280;42597;40.636;0.278;2023-04-19T08:56:30;97202.47;;;17.11;56.46
56719;BME280;42597;40.636;0.278;2023-04-19T08:58:56;97202.88;;;17.27;57.43
56719;BME280;42597;40.636;0.278;2023-04-19T09:01:21;97195.47;;;17.17;57.69
56719;BME280;42597;40.636;0.278;2023-04-19T09:03:47;97198.97;;;17.21;57.97
56719;BME280;42597;40.636;0.278;2023-04-19T09:06:13;97196.63;;;17.27;54.15
56719;BME280;42597;40.636;0.278;2023-04-19T09:08:39;97197.81;;;17.22;52.06
56719;BME280;42597;40.636;0.278;2023-04-19T09:11:06;97195.09;;;17.51;54.23
56719;BME280;42597;40.636;0.278;2023-04-19T09:13:32;97193.91;;;17.52;53.18
56719;BME280;42597;40.636;0.278;2023-04-19T09:15:58;97199.78;;;17.47;52.63
56719;BME280;42597;40.636;0.278;2023-04-19T09:18:29;97192.00;;;17.49;53.69
56719;BME280;42597;40.636;0.278;2023-04-19T09:20:54;97186.88;;;17.44;51.26
56719;BME280;42597;40.636;0.278;2023-04-19T09:23:25;97192.38;;;17.51;51.16
56719;BME280;42597;40.636;0.278;2023-04-19T09:25:55;97196.66;;;17.41;50.66
56719;BME280;42597;40.636;0.278;2023-04-19T09:28:22;97193.94;;;17.59;50.36
56719;BME280;42597;40.636;0.278;2023-04-19T09:30:48;97196.66;;;17.81;51.71
56719;BME280;42597;40.636;0.278;2023-04-19T09:33:35;97185.31;;;17.61;51.72
56719;BME280;42597;40.636;0.278;2023-04-19T09:36:03;97187.31;;;17.82;51.34
56719;BME280;42597;40.636;0.278;2023-04-19T09:38:28;97193.16;;;17.84;52.91
56719;BME280;42597;40.636;0.278;2023-04-19T09:41:07;97197.06;;;17.83;54.01
56719;BME280;42597;40.636;0.278;2023-04-19T09:43:33;97191.56;;;17.68;53.73
56719;BME280;42597;40.636;0.278;2023-04-19T09:45:59;97188.47;;;17.81;53.83
56719;BME280;42597;40.636;0.278;2023-04-19T09:48:25;97191.59;;;17.90;53.91
56719;BME280;42597;40.636;0.278;2023-04-19T09:53:21;97181.41;;;18.15;52.06
56719;BME280;42597;40.636;0.278;2023-04-19T09:55:47;97188.47;;;17.84;52.83
56719;BME280;42597;40.636;0.278;2023-04-19T09:58:13;97177.47;;;18.13;52.79
56719;BME280;42597;40.636;0.278;2023-04-19T10:00:47;97173.59;;;18.07;51.96
56719;BME280;42597;40.636;0.278;2023-04-19T10:03:17;97185.31;;;18.14;51.58
56719;BME280;42597;40.636;0.278;2023-04-19T10:05:44;97165.00;;;18.15;52.51
56719;BME280;42597;40.636;0.278;2023-04-19T10:08:11;97170.47;;;18.15;51.35
56719;BME280;42597;40.636;0.278;2023-04-19T10:10:40;97168.06;;;18.32;50.79
56719;BME280;42597;40.636;0.278;2023-04-19T10:13:10;97163.31;;;18.50;50.59
56719;BME280;42597;40.636;0.278;2023-04-19T10:15:36;97162.44;;;18.74;49.85
56719;BME280;42597;40.636;0.278;2023-04-19T10:18:06;97160.25;;;18.34;49.16
56719;BME280;42597;40.636;0.278;2023-04-19T10:20:50;97171.16;;;18.41;48.84
56719;BME280;42597;40.636;0.278;2023-04-19T10:23:19;97160.22;;;18.41;48.96
56719;BME280;42597;40.636;0.278;2023-04-19T10:25:46;97169.63;;;18.33;51.25
56719;BME280;42597;40.636;0.278;2023-04-19T10:28:15;97146.16;;;18.39;51.05
56719;BME280;42597;40.636;0.278;2023-04-19T10:30:57;97146.81;;;18.68;50.44
56719;BME280;42597;40.636;0.278;2023-04-19T10:33:25;97153.94;;;18.47;50.53
56719;BME280;42597;40.636;0.278;2023-04-19T10:35:54;97154.59;;;18.77;49.94
56719;BME280;42597;40.636;0.278;2023-04-19T10:38:20;97148.34;;;18.69;48.97
56719;BME280;42597;40.636;0.278;2023-04-19T10:41:00;97145.25;;;18.78;50.36
56719;BME280;42597;40.636;0.278;2023-04-19T10:43:34;97153.59;;;19.15;49.82
56719;BME280;42597;40.636;0.278;2023-04-19T10:48:34;97135.97;;;18.43;51.97
56719;BME280;42597;40.636;0.278;2023-04-19T10:53:52;97142.66;;;19.12;51.98
56719;BME280;42597;40.636;0.278;2023-04-19T10:56:56;97137.22;;;18.28;53.96
56719;BME280;42597;40.636;0.278;2023-04-19T11:01:46;97130.97;;;18.23;54.76
56719;BME280;42597;40.636;0.278;2023-04-19T11:04:16;97134.13;;;18.22;55.08
56719;BME280;42597;40.636;0.278;2023-04-19T11:09:30;97126.72;;;18.08;55.89
56719;BME280;42597;40.636;0.278;2023-04-19T11:12:06;97127.22;;;18.77;52.42
56719;BME280;42597;40.636;0.278;2023-04-19T11:14:44;97118.09;;;19.01;51.96
56719;BME280;42597;40.636;0.278;2023-04-19T11:17:20;97114.56;;;19.04;52.35
56719;BME280;42597;40.636;0.278;2023-04-19T11:20:08;97114.78;;;19.28;50.62
56719;BME280;42597;40.636;0.278;2023-04-19T11:22:43;97114.78;;;19.28;52.03
56719;BME280;42597;40.636;0.278;2023-04-19T11:25:16;97110.56;;;19.16;53.08
56719;BME280;42597;40.636;0.278;2023-04-19T11:27:45;97109.22;;;18.83;52.68
56719;BME280;42597;40.636;0.278;2023-04-19T11:30:13;97103.25;;;18.21;54.71
56719;BME280;42597;40.636;0.278;2023-04-19T11:32:53;97102.38;;;18.46;54.42
56719;BME280;42597;40.636;0.278;2023-04-19T11:35:20;97100.06;;;18.34;53.18
56719;BME280;42597;40.636;0.278;2023-04-19T11:37:46;97099.34;;;18.22;52.82
56719;BME280;42597;40.636;0.278;2023-04-19T11:40:16;97096.00;;;18.67;51.67
56719;BME280;42597;40.636;0.278;2023-04-19T11:42:43;97100.69;;;18.73;50.32
56719;BME280;42597;40.636;0.278;2023-04-19T11:45:09;97092.84;;;18.76;50.55
56719;BME280;42597;40.636;0.278;2023-04-19T11:55:19;97083.88;;;19.23;48.54
56719;BME280;42597;40.636;0.278;2023-04-19T11:57:47;97086.31;;;19.14;48.20
56719;BME280;42597;40.636;0.278;2023-04-19T12:00:13;97085.63;;;19.03;47.67
56719;BME280;42597;40.636;0.278;2023-04-19T12:02:41;97083.59;;;19.14;47.01
56719;BME280;42597;40.636;0.278;2023-04-19T12:05:12;97079.16;;;19.28;47.36
56719;BME280;42597;40.636;0.278;2023-04-19T12:08:01;97076.03;;;19.26;46.59
56719;BME280;42597;40.636;0.278;2023-04-19T12:10:31;97067.41;;;19.31;47.22
56719;BME280;42597;40.636;0.278;2023-04-19T12:12:57;97068.50;;;19.37;46.53
56719;BME280;42597;40.636;0.278;2023-04-19T12:15:40;97061.72;;;19.52;46.41
56719;BME280;42597;40.636;0.278;2023-04-19T12:18:05;97059.47;;;19.40;46.21
56719;BME280;42597;40.636;0.278;2023-04-19T12:20:33;97058.00;;;19.32;46.52
56719;BME280;42597;40.636;0.278;2023-04-19T12:22:59;97051.03;;;19.23;45.94
56719;BME280;42597;40.636;0.278;2023-04-19T12:25:32;97057.78;;;19.08;46.30
56719;BME280;42597;40.636;0.278;2023-04-19T12:28:02;97049.13;;;19.13;46.46
56719;BME280;42597;40.636;0.278;2023-04-19T12:30:28;97050.03;;;19.44;45.60
56719;BME280;42597;40.636;0.278;2023-04-19T12:32:54;97051.53;;;19.53;46.53
56719;BME280;42597;40.636;0.278;2023-04-19T12:35:25;97052.00;;;18.99;45.15
56719;BME280;42597;40.636;0.278;2023-04-19T12:37:56;97054.50;;;18.79;44.03
56719;BME280;42597;40.636;0.278;2023-04-19T12:40:23;97045.94;;;18.73;44.07
56719;BME280;42597;40.636;0.278;2023-04-19T12:42:49;97052.00;;;18.99;44.64
56719;BME280;42597;40.636;0.278;2023-04-19T12:45:16;97048.44;;;19.06;43.81
56719;BME280;42597;40.636;0.278;2023-04-19T12:47:42;97050.69;;;19.18;42.87
56719;BME280;42597;40.636;0.278;2023-04-19T12:50:08;97056.47;;;18.79;42.88
56719;BME280;42597;40.636;0.278;2023-04-19T12:52:34;97040.41;;;18.77;43.15
56719;BME280;42597;40.636;0.278;2023-04-19T12:55:01;97040.09;;;18.64;43.10
56719;BME280;42597;40.636;0.278;2023-04-19T12:57:27;97039.56;;;18.87;42.11
56719;BME280;42597;40.636;0.278;2023-04-19T12:59:52;97034.59;;;19.23;42.56
56719;BME280;42597;40.636;0.278;2023-04-19T13:02:18;97047.13;;;19.21;42.78
56719;BME280;42597;40.636;0.278;2023-04-19T13:04:44;97040.34;;;18.88;42.94
56719;BME280;42597;40.636;0.278;2023-04-19T13:07:09;97045.22;;;18.59;42.02
56719;BME280;42597;40.636;0.278;2023-04-19T13:09:35;97037.25;;;18.86;41.84
56719;BME280;42597;40.636;0.278;2023-04-19T13:12:01;97033.03;;;18.67;42.73
56719;BME280;42597;40.636;0.278;2023-04-19T13:14:27;97037.16;;;18.96;41.90
56719;BME280;42597;40.636;0.278;2023-04-19T13:16:53;97026.31;;;18.82;42.07
56719;BME280;42597;40.636;0.278;2023-04-19T13:19:19;97023.69;;;18.64;42.56